createdAt,value
2018-07-11T00:01:49.549Z,87.20
2018-07-11T00:04:17.076Z,87.20
2018-07-11T00:06:44.633Z,86.90
2018-07-11T00:09:12.086Z,86.90
2018-07-11T00:11:39.731Z,86.70
2018-07-11T00:14:07.243Z,86.40
2018-07-11T00:16:34.942Z,86.20
2018-07-11T00:19:02.597Z,85.90
2018-07-11T00:21:30.205Z,85.50
2018-07-11T00:23:57.697Z,85.50
2018-07-11T00:26:25.318Z,85.40
2018-07-11T00:28:52.823Z,85.00
2018-07-11T00:31:20.450Z,84.80
2018-07-11T00:33:48.010Z,85.00
2018-07-11T00:36:15.465Z,85.30
2018-07-11T00:38:43.342Z,85.50
2018-07-11T00:41:10.840Z,86.10
2018-07-11T00:43:38.391Z,86.70
2018-07-11T00:46:06.142Z,87.60
2018-07-11T00:48:34.124Z,87.90
2018-07-11T00:51:02.290Z,88.30
2018-07-11T00:53:30.966Z,88.60
2018-07-11T00:55:59.187Z,89.00
2018-07-11T00:58:33.551Z,89.30
2018-07-11T01:01:06.643Z,89.80
2018-07-11T01:03:36.210Z,90.00
2018-07-11T01:06:03.913Z,90.10
2018-07-11T01:08:35.009Z,90.20
2018-07-11T01:11:08.439Z,90.20
2018-07-11T01:13:36.208Z,90.10
2018-07-11T01:16:03.954Z,90.10
2018-07-11T01:18:32.562Z,90.10
2018-07-11T01:21:00.147Z,90.20
2018-07-11T01:23:27.705Z,90.40
2018-07-11T01:25:55.186Z,90.60
2018-07-11T01:28:22.655Z,90.80
2018-07-11T01:30:50.246Z,90.90
2018-07-11T01:33:17.753Z,91.10
2018-07-11T01:35:45.238Z,91.30
2018-07-11T01:38:12.799Z,91.30
2018-07-11T01:40:40.375Z,91.40
2018-07-11T01:43:07.837Z,91.40
2018-07-11T01:48:02.780Z,91.40
2018-07-11T01:50:30.977Z,91.40
2018-07-11T01:52:59.435Z,91.30
2018-07-11T01:55:27.715Z,91.20
2018-07-11T01:57:58.776Z,91.20
2018-07-11T02:00:27.262Z,91.30
2018-07-11T02:02:54.825Z,91.20
2018-07-11T02:05:23.814Z,91.20
2018-07-11T02:07:51.926Z,91.20
2018-07-11T02:10:19.469Z,91.30
2018-07-11T02:12:48.188Z,91.30
2018-07-11T02:15:15.907Z,91.30
2018-07-11T02:17:43.499Z,91.40
2018-07-11T02:20:12.973Z,91.40
2018-07-11T02:22:40.435Z,91.40
2018-07-11T02:25:08.375Z,91.50
2018-07-11T02:27:36.173Z,91.40
2018-07-11T02:30:03.978Z,91.50
2018-07-11T02:32:32.758Z,91.60
2018-07-11T02:35:00.316Z,91.60
2018-07-11T02:37:27.939Z,91.60
2018-07-11T02:39:55.419Z,91.70
2018-07-11T02:42:23.008Z,91.80
2018-07-11T02:44:50.624Z,91.80
2018-07-11T02:47:24.001Z,91.90
2018-07-11T02:49:51.472Z,92.00
2018-07-11T02:52:19.159Z,92.00
2018-07-11T02:54:46.595Z,92.10
2018-07-11T02:57:14.087Z,92.20
2018-07-11T02:59:41.753Z,92.30
2018-07-11T03:02:09.411Z,92.30
2018-07-11T03:04:37.297Z,92.60
2018-07-11T03:07:05.567Z,92.30
2018-07-11T03:09:33.092Z,92.10
2018-07-11T03:12:00.600Z,92.00
2018-07-11T03:14:28.374Z,92.00
2018-07-11T03:16:55.912Z,92.00
2018-07-11T03:19:23.458Z,91.90
2018-07-11T03:21:51.079Z,91.60
2018-07-11T03:24:19.010Z,91.80
2018-07-11T03:26:46.500Z,91.80
2018-07-11T03:29:14.246Z,91.60
2018-07-11T03:31:41.924Z,91.60
2018-07-11T03:34:09.479Z,91.60
2018-07-11T03:36:37.172Z,91.70
2018-07-11T03:39:05.483Z,91.70
2018-07-11T03:41:33.019Z,91.80
2018-07-11T03:44:00.669Z,91.80
2018-07-11T03:46:28.242Z,91.90
2018-07-11T03:48:55.795Z,91.90
2018-07-11T03:51:23.363Z,92.00
2018-07-11T03:53:50.975Z,92.10
2018-07-11T03:58:46.012Z,92.20
2018-07-11T04:01:13.491Z,92.00
2018-07-11T04:03:40.888Z,92.00
2018-07-11T04:06:09.390Z,92.10
2018-07-11T04:08:37.000Z,92.20
2018-07-11T04:11:04.534Z,92.20
2018-07-11T04:13:32.100Z,92.30
2018-07-11T04:15:59.602Z,92.70
2018-07-11T04:18:28.932Z,92.50
2018-07-11T04:20:56.979Z,92.60
2018-07-11T04:23:24.793Z,92.70
2018-07-11T04:25:52.797Z,92.80
2018-07-11T04:28:20.657Z,93.10
2018-07-11T04:30:48.343Z,93.20
2018-07-11T04:33:20.068Z,93.30
2018-07-11T04:35:47.867Z,93.50
2018-07-11T04:38:15.417Z,93.80
2018-07-11T04:40:43.555Z,93.80
2018-07-11T04:43:11.487Z,94.00
2018-07-11T04:45:39.158Z,94.00
2018-07-11T04:48:07.314Z,94.20
2018-07-11T04:50:34.995Z,94.60
2018-07-11T04:53:05.475Z,94.50
2018-07-11T04:55:33.147Z,94.70
2018-07-11T04:58:00.817Z,94.80
2018-07-11T05:00:28.407Z,94.90
2018-07-11T05:02:55.998Z,95.00
2018-07-11T05:05:23.654Z,95.10
2018-07-11T05:07:51.400Z,95.20
2018-07-11T05:10:19.022Z,95.20
2018-07-11T05:12:46.546Z,95.30
2018-07-11T05:15:14.042Z,95.30
2018-07-11T05:17:41.704Z,95.50
2018-07-11T05:20:09.259Z,95.50
2018-07-11T05:22:36.820Z,95.50
2018-07-11T05:25:04.127Z,95.70
2018-07-11T05:27:31.674Z,95.90
2018-07-11T05:29:59.335Z,95.90
2018-07-11T05:32:26.976Z,95.90
2018-07-11T05:34:54.630Z,96.30
2018-07-11T05:37:22.191Z,96.00
2018-07-11T05:39:49.787Z,96.10
2018-07-11T05:42:17.372Z,96.00
2018-07-11T05:44:44.915Z,96.00
2018-07-11T05:47:12.447Z,96.20
2018-07-11T05:49:40.055Z,96.10
2018-07-11T05:52:07.814Z,96.50
2018-07-11T05:54:35.425Z,96.20
2018-07-11T05:57:03.043Z,96.20
2018-07-11T05:59:30.821Z,96.10
2018-07-11T06:01:58.595Z,95.90
2018-07-11T06:04:26.205Z,96.10
2018-07-11T06:06:53.903Z,96.20
2018-07-11T06:09:21.387Z,96.30
2018-07-11T06:11:48.983Z,96.30
2018-07-11T06:14:16.597Z,96.40
2018-07-11T06:16:44.707Z,96.40
2018-07-11T06:19:12.198Z,96.50
2018-07-11T06:21:39.903Z,96.40
2018-07-11T06:24:08.293Z,96.30
2018-07-11T06:26:35.893Z,96.40
2018-07-11T06:29:03.473Z,96.30
2018-07-11T06:31:31.059Z,96.20
2018-07-11T06:33:58.609Z,96.40
2018-07-11T06:36:26.161Z,96.40
2018-07-11T06:38:53.727Z,96.40
2018-07-11T06:41:21.187Z,96.30
2018-07-11T06:43:48.708Z,96.30
2018-07-11T06:46:16.275Z,96.10
2018-07-11T06:48:43.934Z,96.20
2018-07-11T06:53:38.838Z,96.20
2018-07-11T06:56:06.507Z,96.20
2018-07-11T06:58:33.984Z,96.10
2018-07-11T07:01:01.498Z,96.10
2018-07-11T07:03:29.061Z,96.10
2018-07-11T07:05:56.691Z,96.20
2018-07-11T07:08:24.400Z,96.30
2018-07-11T07:10:52.339Z,95.90
2018-07-11T07:13:19.826Z,95.90
2018-07-11T07:15:47.309Z,95.40
2018-07-11T07:18:14.783Z,95.40
2018-07-11T07:20:42.396Z,95.30
2018-07-11T07:23:09.956Z,95.40
2018-07-11T07:25:37.459Z,95.10
2018-07-11T07:28:05.019Z,95.30
2018-07-11T07:30:32.471Z,95.20
2018-07-11T07:32:59.950Z,95.00
2018-07-11T07:35:27.497Z,94.60
2018-07-11T07:37:55.115Z,94.30
2018-07-11T07:40:22.599Z,94.60
2018-07-11T07:42:50.267Z,94.50
2018-07-11T07:45:17.779Z,94.60
2018-07-11T07:47:46.058Z,94.50
2018-07-11T07:50:14.843Z,94.50
2018-07-11T07:52:42.415Z,94.50
2018-07-11T07:55:10.384Z,94.30
2018-07-11T07:57:38.270Z,94.40
2018-07-11T08:00:06.315Z,93.50
2018-07-11T08:02:33.842Z,93.20
2018-07-11T08:05:04.566Z,93.30
2018-07-11T08:07:32.717Z,93.50
2018-07-11T08:10:00.325Z,93.00
2018-07-11T08:12:28.050Z,92.30
2018-07-11T08:14:55.643Z,92.30
2018-07-11T08:17:23.274Z,92.30
2018-07-11T08:19:50.797Z,92.30
2018-07-11T08:22:29.831Z,92.00
2018-07-11T08:26:10.673Z,91.60
2018-07-11T08:30:53.361Z,91.40
2018-07-11T08:33:31.718Z,90.70
2018-07-11T08:36:10.583Z,91.30
2018-07-11T08:38:49.591Z,91.00
2018-07-11T08:41:26.099Z,90.80
2018-07-11T08:44:09.141Z,90.80
2018-07-11T08:48:53.527Z,90.50
2018-07-11T08:52:08.861Z,90.50
2018-07-11T08:57:54.010Z,90.00
2018-07-11T09:03:00.055Z,89.90
2018-07-11T09:05:47.803Z,85.90
2018-07-11T09:08:28.566Z,83.70
2018-07-11T09:11:37.055Z,84.70
2018-07-11T09:16:21.190Z,85.00
2018-07-11T09:20:05.583Z,85.30
2018-07-11T09:23:44.980Z,84.00
2018-07-11T09:26:12.535Z,83.80
2018-07-11T09:28:40.043Z,83.70
2018-07-11T09:31:07.498Z,83.80
2018-07-11T09:33:34.995Z,83.10
2018-07-11T09:36:02.640Z,83.50
2018-07-11T09:38:30.467Z,82.30
2018-07-11T09:40:58.027Z,82.10
2018-07-11T09:43:25.787Z,81.80
2018-07-11T09:45:53.671Z,81.50
2018-07-11T09:48:21.349Z,80.90
2018-07-11T09:53:16.727Z,80.50
2018-07-11T09:55:44.255Z,80.70
2018-07-11T09:58:11.797Z,78.40
2018-07-11T10:00:45.222Z,79.30
2018-07-11T10:03:12.774Z,79.20
2018-07-11T10:05:40.364Z,79.00
2018-07-11T10:08:09.178Z,77.50
2018-07-11T10:10:36.740Z,77.50
2018-07-11T10:13:04.562Z,76.60
2018-07-11T10:15:32.041Z,77.10
2018-07-11T10:17:59.689Z,76.20
2018-07-11T10:20:27.155Z,75.40
2018-07-11T10:22:54.668Z,75.60
2018-07-11T10:25:22.130Z,76.00
2018-07-11T10:27:59.855Z,77.00
2018-07-11T10:30:27.429Z,75.40
2018-07-11T10:32:55.018Z,75.80
2018-07-11T10:35:22.644Z,74.40
2018-07-11T10:37:50.558Z,74.20
2018-07-11T10:40:18.119Z,75.20
2018-07-11T10:42:45.598Z,74.30
2018-07-11T10:45:13.114Z,74.50
2018-07-11T10:47:40.626Z,73.60
2018-07-11T10:50:08.229Z,74.20
2018-07-11T10:52:35.823Z,74.20
2018-07-11T10:55:03.509Z,72.90
2018-07-11T10:57:31.005Z,73.00
2018-07-11T10:59:58.608Z,72.90
2018-07-11T11:02:26.093Z,71.40
2018-07-11T11:04:53.855Z,70.10
2018-07-11T11:07:21.473Z,70.60
2018-07-11T11:09:49.101Z,70.60
2018-07-11T11:12:16.639Z,69.40
2018-07-11T11:14:44.190Z,70.10
2018-07-11T11:17:11.690Z,69.70
2018-07-11T11:19:39.198Z,70.40
2018-07-11T11:22:08.446Z,71.10
2018-07-11T11:24:35.934Z,71.40
2018-07-11T11:27:03.555Z,73.10
2018-07-11T11:29:31.487Z,73.10
2018-07-11T11:31:59.065Z,73.60
2018-07-11T11:34:26.985Z,74.90
2018-07-11T11:36:54.555Z,75.30
2018-07-11T11:39:22.069Z,75.30
2018-07-11T11:41:49.853Z,76.30
2018-07-11T11:44:17.313Z,77.80
2018-07-11T11:46:44.924Z,78.70
2018-07-11T11:49:12.867Z,79.50
2018-07-11T11:51:40.484Z,81.00
2018-07-11T11:54:08.214Z,81.30
2018-07-11T11:56:35.862Z,81.10
2018-07-11T11:59:03.508Z,81.50
2018-07-11T12:01:31.103Z,80.10
2018-07-11T12:03:58.674Z,80.40
2018-07-11T12:06:26.560Z,80.50
2018-07-11T12:08:54.349Z,82.20
2018-07-11T12:11:22.417Z,80.00
2018-07-11T12:13:50.429Z,80.30
2018-07-11T12:16:18.256Z,79.50
2018-07-11T12:18:45.858Z,80.40
2018-07-11T12:21:13.648Z,79.50
2018-07-11T12:23:41.635Z,78.80
2018-07-11T12:26:10.609Z,78.40
2018-07-11T12:28:38.351Z,78.30
2018-07-11T12:31:06.059Z,78.50
2018-07-11T12:33:34.120Z,80.10
2018-07-11T12:36:01.809Z,78.60
2018-07-11T12:38:29.811Z,78.60
2018-07-11T12:40:57.467Z,79.00
2018-07-11T12:43:25.861Z,78.40
2018-07-11T12:45:53.427Z,78.40
2018-07-11T12:48:26.794Z,78.20
2018-07-11T12:50:54.562Z,77.50
2018-07-11T12:53:22.341Z,77.60
2018-07-11T12:55:49.998Z,78.20
2018-07-11T13:00:46.614Z,76.60
2018-07-11T13:03:14.849Z,77.20
2018-07-11T13:05:42.698Z,77.20
2018-07-11T13:08:10.339Z,76.20
2018-07-11T13:10:38.598Z,76.50
2018-07-11T13:13:06.488Z,77.10
2018-07-11T13:15:34.158Z,76.60
2018-07-11T13:18:01.670Z,76.90
2018-07-11T13:20:29.238Z,77.50
2018-07-11T13:22:56.878Z,77.50
2018-07-11T13:25:24.871Z,78.30
2018-07-11T13:30:22.443Z,78.20
2018-07-11T13:32:50.461Z,78.50
2018-07-11T13:35:18.610Z,78.40
2018-07-11T13:37:46.492Z,78.10
2018-07-11T13:40:14.594Z,78.20
2018-07-11T13:42:42.289Z,78.60
2018-07-11T13:45:10.435Z,79.20
2018-07-11T13:47:38.972Z,79.00
2018-07-11T13:50:07.669Z,79.00
2018-07-11T13:52:35.272Z,79.60
2018-07-11T13:55:03.720Z,79.90
2018-07-11T13:57:31.590Z,79.90
2018-07-11T14:02:28.409Z,79.80
2018-07-11T14:04:56.042Z,79.90
2018-07-11T14:07:24.546Z,80.60
2018-07-11T14:09:52.432Z,81.60
2018-07-11T14:12:20.318Z,82.20
2018-07-11T14:14:48.246Z,82.70
2018-07-11T14:17:15.908Z,82.60
2018-07-11T14:19:44.102Z,82.40
2018-07-11T14:22:12.148Z,82.40
2018-07-11T14:24:39.986Z,82.50
2018-07-11T14:27:07.842Z,82.80
2018-07-11T14:29:35.777Z,83.30
2018-07-11T14:32:04.068Z,83.50
2018-07-11T14:34:32.307Z,84.30
2018-07-11T14:39:28.492Z,87.40
2018-07-11T14:41:56.263Z,89.90
2018-07-11T14:44:23.951Z,91.60
2018-07-11T14:46:51.805Z,93.10
2018-07-11T14:49:20.417Z,94.10
2018-07-11T14:51:48.291Z,95.00
2018-07-11T14:54:16.147Z,95.60
2018-07-11T14:56:44.036Z,96.10
2018-07-11T14:59:12.036Z,96.00
2018-07-11T15:01:39.752Z,96.00
2018-07-11T15:04:08.462Z,96.00
2018-07-11T15:06:36.046Z,96.50
2018-07-11T15:09:04.679Z,96.30
2018-07-11T15:11:32.054Z,96.20
2018-07-11T15:13:59.962Z,96.10
2018-07-11T15:16:27.630Z,96.20
2018-07-11T15:18:55.164Z,96.10
2018-07-11T15:21:23.501Z,96.30
2018-07-11T15:23:51.169Z,96.30
2018-07-11T15:28:46.567Z,96.40
2018-07-11T15:31:14.534Z,96.40
2018-07-11T15:33:42.497Z,96.00
2018-07-11T15:36:10.112Z,96.10
2018-07-11T15:38:37.820Z,96.00
2018-07-11T15:41:05.671Z,96.20
2018-07-11T15:43:33.402Z,96.10
2018-07-11T15:46:00.966Z,96.10
2018-07-11T15:48:28.819Z,96.00
2018-07-11T15:50:56.683Z,95.90
2018-07-11T15:53:25.978Z,95.40
2018-07-11T15:55:53.495Z,96.00
2018-07-11T15:58:22.439Z,95.80
2018-07-11T16:00:50.129Z,98.10
2018-07-11T16:03:18.093Z,99.90
2018-07-11T16:05:46.410Z,99.90
2018-07-11T16:08:16.744Z,99.90
2018-07-11T16:10:48.323Z,99.90
2018-07-11T16:13:15.982Z,99.90
2018-07-11T16:15:44.259Z,99.90
2018-07-11T16:18:11.946Z,99.90
2018-07-11T16:20:39.526Z,99.90
2018-07-11T16:23:08.134Z,99.90
2018-07-11T16:25:36.470Z,99.90
2018-07-11T16:28:05.238Z,99.90
2018-07-11T16:30:32.979Z,99.90
2018-07-11T16:33:01.437Z,99.90
2018-07-11T16:35:29.303Z,99.90
2018-07-11T16:37:59.130Z,99.90
2018-07-11T16:40:27.622Z,99.90
2018-07-11T16:42:55.363Z,99.90
2018-07-11T16:45:23.441Z,99.90
2018-07-11T16:47:51.032Z,99.90
2018-07-11T16:50:19.634Z,99.90
2018-07-11T16:52:47.535Z,99.90
2018-07-11T16:55:15.345Z,99.90
2018-07-11T16:57:47.210Z,99.90
2018-07-11T17:00:15.174Z,99.90
2018-07-11T17:02:44.553Z,99.90
2018-07-11T17:05:17.583Z,99.90
2018-07-11T17:07:50.011Z,99.90
2018-07-11T17:10:19.504Z,99.90
2018-07-11T17:12:52.976Z,99.90
2018-07-11T17:15:22.841Z,99.90
2018-07-11T17:17:53.381Z,99.90
2018-07-11T17:20:21.651Z,99.90
2018-07-11T17:22:55.925Z,99.90
2018-07-11T17:25:27.360Z,99.90
2018-07-11T17:27:59.305Z,99.90
2018-07-11T17:30:34.053Z,99.90
2018-07-11T17:33:03.151Z,99.90
2018-07-11T17:35:32.233Z,99.90
2018-07-11T17:38:02.030Z,99.90
2018-07-11T17:40:35.064Z,99.90
2018-07-11T17:43:03.335Z,99.90
2018-07-11T17:45:31.026Z,99.90
2018-07-11T17:48:07.313Z,99.90
2018-07-11T17:50:37.006Z,99.90
2018-07-11T17:53:12.760Z,99.90
2018-07-11T17:56:12.613Z,99.90
2018-07-11T17:58:51.337Z,99.90
2018-07-11T18:04:13.387Z,99.90
2018-07-11T18:06:53.602Z,99.90
2018-07-11T18:09:22.090Z,99.90
2018-07-11T18:11:53.987Z,99.90
2018-07-11T18:14:28.512Z,99.90
2018-07-11T18:16:59.049Z,99.90
2018-07-11T18:20:38.222Z,99.90
2018-07-11T18:23:18.768Z,99.90
2018-07-11T18:26:01.393Z,99.90
2018-07-11T18:28:42.207Z,99.90
2018-07-11T18:31:33.296Z,99.90
2018-07-11T18:34:12.274Z,99.90
2018-07-11T18:40:24.389Z,99.90
2018-07-11T18:43:03.038Z,99.90
2018-07-11T18:47:14.229Z,99.90
2018-07-11T18:50:05.879Z,99.90
2018-07-11T18:52:36.772Z,99.90
2018-07-11T18:56:24.714Z,99.90
2018-07-11T18:58:53.390Z,99.90
2018-07-11T19:02:02.525Z,99.90
2018-07-11T19:04:41.611Z,99.90
2018-07-11T19:07:13.894Z,99.90
2018-07-11T19:09:44.311Z,99.90
2018-07-11T19:12:24.441Z,99.90
2018-07-11T19:15:03.595Z,99.90
2018-07-11T19:19:50.171Z,99.90
2018-07-11T19:22:28.035Z,99.90
2018-07-11T19:25:03.383Z,99.90
2018-07-11T19:27:37.641Z,99.90
2018-07-11T19:30:16.925Z,99.90
2018-07-11T19:34:01.926Z,99.90
2018-07-11T19:37:09.562Z,99.90
2018-07-11T19:39:45.052Z,99.90
2018-07-11T19:42:24.206Z,99.90
2018-07-11T19:46:05.381Z,99.90
2018-07-11T19:50:44.018Z,99.90
2018-07-11T19:53:20.981Z,99.90
2018-07-11T19:55:57.856Z,99.90
2018-07-11T19:58:25.559Z,99.90
2018-07-11T20:00:53.417Z,99.90
2018-07-11T20:03:20.992Z,99.90
2018-07-11T20:05:53.340Z,99.90
2018-07-11T20:08:16.223Z,99.90
2018-07-11T20:10:43.788Z,99.90
2018-07-11T20:13:11.418Z,99.90
2018-07-11T20:15:39.050Z,99.90
2018-07-11T20:18:06.897Z,99.90
2018-07-11T20:20:34.338Z,99.90
2018-07-11T20:23:01.940Z,99.90
2018-07-11T20:25:29.598Z,99.90
2018-07-11T20:27:57.286Z,99.90
2018-07-11T20:30:24.962Z,99.90
2018-07-11T20:32:52.465Z,99.90
2018-07-11T20:35:19.974Z,99.90
2018-07-11T20:37:48.049Z,99.90
2018-07-11T20:40:15.744Z,99.90
2018-07-11T20:42:43.264Z,99.90
2018-07-11T20:45:11.177Z,99.90
2018-07-11T20:47:39.152Z,99.90
2018-07-11T20:50:06.679Z,99.90
2018-07-11T20:52:34.357Z,99.90
2018-07-11T20:55:01.894Z,99.90
2018-07-11T20:57:29.714Z,99.90
2018-07-11T21:00:08.691Z,99.90
2018-07-11T21:02:50.654Z,99.90
2018-07-11T21:07:36.445Z,99.90
2018-07-11T21:11:21.996Z,99.90
2018-07-11T21:15:01.492Z,99.90
2018-07-11T21:19:37.826Z,99.90
2018-07-11T21:22:05.551Z,99.90
2018-07-11T21:24:33.046Z,99.90
2018-07-11T21:27:00.626Z,99.90
2018-07-11T21:29:28.235Z,99.90
2018-07-11T21:31:55.779Z,99.90
2018-07-11T21:34:23.435Z,99.90
2018-07-11T21:36:50.882Z,99.90
2018-07-11T21:41:46.016Z,99.90
2018-07-11T21:44:13.450Z,99.90
2018-07-11T21:46:41.594Z,99.90
2018-07-11T21:49:09.127Z,99.90
2018-07-11T21:51:36.593Z,99.90
2018-07-11T21:54:04.441Z,99.90
2018-07-11T21:56:32.007Z,99.90
2018-07-11T21:58:59.585Z,99.90
2018-07-11T22:01:27.182Z,99.90
2018-07-11T22:03:54.879Z,99.90
2018-07-11T22:06:22.446Z,99.90
2018-07-11T22:08:50.032Z,99.90
2018-07-11T22:11:18.093Z,99.90
2018-07-11T22:13:45.578Z,99.90
2018-07-11T22:16:13.210Z,99.90
2018-07-11T22:18:42.935Z,99.90
2018-07-11T22:21:10.275Z,99.90
2018-07-11T22:23:36.749Z,99.90
2018-07-11T22:26:03.422Z,99.90
2018-07-11T22:28:30.367Z,99.90
2018-07-11T22:30:56.900Z,99.90
2018-07-11T22:33:23.372Z,99.90
2018-07-11T22:35:49.858Z,99.90
2018-07-11T22:40:43.866Z,99.90
2018-07-11T22:43:10.326Z,99.90
2018-07-11T22:45:36.795Z,99.90
2018-07-11T22:48:03.375Z,99.90
2018-07-11T22:50:30.153Z,99.90
2018-07-11T22:52:56.612Z,99.90
2018-07-11T22:55:23.104Z,99.90
2018-07-11T22:57:49.629Z,99.90
2018-07-11T23:00:16.435Z,99.90
2018-07-11T23:02:42.974Z,99.90
2018-07-11T23:05:09.389Z,99.90
2018-07-11T23:07:35.858Z,99.90
2018-07-11T23:12:29.374Z,99.90
2018-07-11T23:14:55.939Z,99.90
2018-07-11T23:17:22.393Z,99.90
2018-07-11T23:19:48.920Z,99.90
2018-07-11T23:22:15.420Z,99.90
2018-07-11T23:24:41.968Z,99.90
2018-07-11T23:27:08.502Z,99.90
2018-07-11T23:29:35.006Z,99.90
2018-07-11T23:32:01.638Z,99.90
2018-07-11T23:34:28.145Z,99.90
2018-07-11T23:36:54.689Z,99.90
2018-07-11T23:39:27.139Z,99.90
2018-07-11T23:41:59.562Z,99.90
2018-07-11T23:44:25.999Z,99.90
2018-07-11T23:49:19.459Z,99.90
2018-07-11T23:51:45.928Z,99.90
2018-07-11T23:54:12.414Z,99.90
2018-07-11T23:56:38.932Z,99.90
2018-07-11T23:59:05.467Z,99.90
